KMLE

Millard Airport

Omaha, Nebraska, USA
METAR KMLE 202015Z AUTO 33009G24KT 310V010 10SM OVC016 22/19 A2983 RMK AO2 LTG DSNT E T02220192
Observed Flight Rules
Aug-20 @ 20:15 UTC (16 minutes ago) Marginal Visual Flight Rules
Wind Visibility Clouds
330° at 9 knots
 Gusting to 24 knots
10 miles
  • Overcast at 1,600' AGL
Temperatures Readings
Current 22°C / 72°F
Dewpoint 19°C / 66°F
Humidity 83%
Altimeter 29.83" Hg
Pressure 1010 hPa
Elevation 320
METAR KMLE 202015Z AUTO 33009G24KT 310V010 10SM OVC016 22/19 A2983 RMK AO2 LTG DSNT E T02220192
Observed Flight Rules
Aug-20 @ 20:15 UTC
(16 minutes ago)
MVFR
Wind Visibility
330° at 9 knots
 Gusting to 24 knots
10 miles
Clouds
  • Overcast at 1,600' AGL
Temperature Dewpoint
22°C / 72°F 19°C / 66°F
Humidity Altimeter Pressure
83% 29.83" Hg 1010 hPa